sensor_id;sensor_type;location;lat;lon;timestamp;P1;durP1;ratioP1;P2;durP2;ratioP2
75499;SDS011;64076;51.466;7.260;2023-03-01T00:01:23;5.80;;;4.80;;
75499;SDS011;64076;51.466;7.260;2023-03-01T00:03:51;6.20;;;5.20;;
75499;SDS011;64076;51.466;7.260;2023-03-01T00:06:17;6.90;;;4.70;;
75499;SDS011;64076;51.466;7.260;2023-03-01T00:08:43;5.72;;;4.57;;
75499;SDS011;64076;51.466;7.260;2023-03-01T00:13:37;8.05;;;5.32;;
75499;SDS011;64076;51.466;7.260;2023-03-01T00:16:04;7.18;;;5.32;;
75499;SDS011;64076;51.466;7.260;2023-03-01T00:18:30;5.70;;;5.03;;
75499;SDS011;64076;51.466;7.260;2023-03-01T00:20:56;5.93;;;5.00;;
75499;SDS011;64076;51.466;7.260;2023-03-01T00:23:22;6.03;;;5.20;;
75499;SDS011;64076;51.466;7.260;2023-03-01T00:25:48;6.35;;;5.30;;
75499;SDS011;64076;51.466;7.260;2023-03-01T00:28:14;6.57;;;5.03;;
75499;SDS011;64076;51.466;7.260;2023-03-01T00:30:40;6.83;;;5.10;;
75499;SDS011;64076;51.466;7.260;2023-03-01T00:33:06;6.50;;;5.18;;
75499;SDS011;64076;51.466;7.260;2023-03-01T00:35:32;5.85;;;5.13;;
75499;SDS011;64076;51.466;7.260;2023-03-01T00:37:59;5.43;;;4.85;;
75499;SDS011;64076;51.466;7.260;2023-03-01T00:40:25;6.68;;;4.93;;
75499;SDS011;64076;51.466;7.260;2023-03-01T00:42:51;5.73;;;5.00;;
75499;SDS011;64076;51.466;7.260;2023-03-01T00:45:17;7.45;;;5.72;;
75499;SDS011;64076;51.466;7.260;2023-03-01T00:47:43;6.93;;;5.28;;
75499;SDS011;64076;51.466;7.260;2023-03-01T00:50:09;6.35;;;5.05;;
75499;SDS011;64076;51.466;7.260;2023-03-01T00:52:36;6.60;;;4.80;;
75499;SDS011;64076;51.466;7.260;2023-03-01T00:55:02;6.40;;;5.40;;
75499;SDS011;64076;51.466;7.260;2023-03-01T00:57:28;6.57;;;5.40;;
75499;SDS011;64076;51.466;7.260;2023-03-01T00:59:54;6.63;;;5.43;;
75499;SDS011;64076;51.466;7.260;2023-03-01T01:02:20;7.45;;;5.10;;
75499;SDS011;64076;51.466;7.260;2023-03-01T01:04:46;6.43;;;5.57;;
75499;SDS011;64076;51.466;7.260;2023-03-01T01:07:12;6.78;;;5.30;;
75499;SDS011;64076;51.466;7.260;2023-03-01T01:09:38;6.32;;;5.10;;
75499;SDS011;64076;51.466;7.260;2023-03-01T01:12:05;6.13;;;5.30;;
75499;SDS011;64076;51.466;7.260;2023-03-01T01:14:31;7.18;;;5.20;;
75499;SDS011;64076;51.466;7.260;2023-03-01T01:16:57;7.00;;;5.07;;
75499;SDS011;64076;51.466;7.260;2023-03-01T01:19:23;6.72;;;4.88;;
75499;SDS011;64076;51.466;7.260;2023-03-01T01:21:49;8.18;;;4.78;;
75499;SDS011;64076;51.466;7.260;2023-03-01T01:24:16;6.47;;;5.30;;
75499;SDS011;64076;51.466;7.260;2023-03-01T01:26:42;6.65;;;5.13;;
75499;SDS011;64076;51.466;7.260;2023-03-01T01:29:08;6.63;;;5.30;;
75499;SDS011;64076;51.466;7.260;2023-03-01T01:31:35;6.03;;;5.00;;
75499;SDS011;64076;51.466;7.260;2023-03-01T01:34:03;6.65;;;5.35;;
75499;SDS011;64076;51.466;7.260;2023-03-01T01:36:29;7.72;;;5.55;;
75499;SDS011;64076;51.466;7.260;2023-03-01T01:38:55;7.38;;;5.50;;
75499;SDS011;64076;51.466;7.260;2023-03-01T01:41:21;6.17;;;5.20;;
75499;SDS011;64076;51.466;7.260;2023-03-01T01:43:49;6.28;;;5.28;;
75499;SDS011;64076;51.466;7.260;2023-03-01T01:46:18;5.68;;;5.07;;
75499;SDS011;64076;51.466;7.260;2023-03-01T01:48:48;7.18;;;5.35;;
75499;SDS011;64076;51.466;7.260;2023-03-01T01:51:19;7.78;;;5.70;;
75499;SDS011;64076;51.466;7.260;2023-03-01T01:53:46;6.57;;;5.27;;
75499;SDS011;64076;51.466;7.260;2023-03-01T01:56:14;6.93;;;5.22;;
75499;SDS011;64076;51.466;7.260;2023-03-01T01:58:41;6.22;;;5.32;;
75499;SDS011;64076;51.466;7.260;2023-03-01T02:01:08;6.10;;;5.38;;
75499;SDS011;64076;51.466;7.260;2023-03-01T02:03:35;5.97;;;5.20;;
75499;SDS011;64076;51.466;7.260;2023-03-01T02:06:10;7.13;;;4.83;;
75499;SDS011;64076;51.466;7.260;2023-03-01T02:08:38;6.68;;;5.10;;
75499;SDS011;64076;51.466;7.260;2023-03-01T02:11:04;6.78;;;5.20;;
75499;SDS011;64076;51.466;7.260;2023-03-01T02:13:31;6.38;;;4.97;;
75499;SDS011;64076;51.466;7.260;2023-03-01T02:15:58;6.63;;;5.10;;
75499;SDS011;64076;51.466;7.260;2023-03-01T02:18:25;6.90;;;4.80;;
75499;SDS011;64076;51.466;7.260;2023-03-01T02:23:17;5.78;;;4.97;;
75499;SDS011;64076;51.466;7.260;2023-03-01T02:30:47;6.55;;;5.38;;
75499;SDS011;64076;51.466;7.260;2023-03-01T02:33:33;6.20;;;4.95;;
75499;SDS011;64076;51.466;7.260;2023-03-01T02:36:01;7.03;;;5.35;;
75499;SDS011;64076;51.466;7.260;2023-03-01T02:38:28;6.22;;;5.10;;
75499;SDS011;64076;51.466;7.260;2023-03-01T02:40:55;6.40;;;5.20;;
75499;SDS011;64076;51.466;7.260;2023-03-01T02:43:22;6.82;;;5.30;;
75499;SDS011;64076;51.466;7.260;2023-03-01T02:45:50;6.57;;;5.60;;
75499;SDS011;64076;51.466;7.260;2023-03-01T02:48:17;6.47;;;5.18;;
75499;SDS011;64076;51.466;7.260;2023-03-01T02:51:26;5.82;;;5.22;;
75499;SDS011;64076;51.466;7.260;2023-03-01T02:56:17;6.32;;;5.25;;
75499;SDS011;64076;51.466;7.260;2023-03-01T02:58:43;7.63;;;5.47;;
75499;SDS011;64076;51.466;7.260;2023-03-01T03:01:13;7.63;;;5.68;;
75499;SDS011;64076;51.466;7.260;2023-03-01T03:03:40;7.05;;;5.75;;
75499;SDS011;64076;51.466;7.260;2023-03-01T03:06:06;5.90;;;4.97;;
75499;SDS011;64076;51.466;7.260;2023-03-01T03:08:31;6.97;;;5.43;;
75499;SDS011;64076;51.466;7.260;2023-03-01T03:10:57;6.83;;;5.43;;
75499;SDS011;64076;51.466;7.260;2023-03-01T03:13:23;5.95;;;5.07;;
75499;SDS011;64076;51.466;7.260;2023-03-01T03:15:53;5.97;;;5.03;;
75499;SDS011;64076;51.466;7.260;2023-03-01T03:18:19;7.65;;;5.60;;
75499;SDS011;64076;51.466;7.260;2023-03-01T03:20:45;6.77;;;5.50;;
75499;SDS011;64076;51.466;7.260;2023-03-01T03:23:12;6.45;;;5.28;;
75499;SDS011;64076;51.466;7.260;2023-03-01T03:25:38;6.38;;;5.10;;
75499;SDS011;64076;51.466;7.260;2023-03-01T03:28:04;7.07;;;5.60;;
75499;SDS011;64076;51.466;7.260;2023-03-01T03:30:34;6.22;;;5.20;;
75499;SDS011;64076;51.466;7.260;2023-03-01T03:33:00;7.47;;;5.57;;
75499;SDS011;64076;51.466;7.260;2023-03-01T03:35:33;7.78;;;5.55;;
75499;SDS011;64076;51.466;7.260;2023-03-01T03:38:00;6.68;;;5.38;;
75499;SDS011;64076;51.466;7.260;2023-03-01T03:40:27;7.72;;;5.25;;
75499;SDS011;64076;51.466;7.260;2023-03-01T03:42:53;7.07;;;5.63;;
75499;SDS011;64076;51.466;7.260;2023-03-01T03:45:19;6.47;;;5.50;;
75499;SDS011;64076;51.466;7.260;2023-03-01T03:47:46;6.57;;;5.35;;
75499;SDS011;64076;51.466;7.260;2023-03-01T03:50:12;5.75;;;5.20;;
75499;SDS011;64076;51.466;7.260;2023-03-01T03:52:39;6.60;;;5.60;;
75499;SDS011;64076;51.466;7.260;2023-03-01T03:55:05;6.03;;;5.23;;
75499;SDS011;64076;51.466;7.260;2023-03-01T03:57:35;7.38;;;5.43;;
75499;SDS011;64076;51.466;7.260;2023-03-01T04:00:01;6.40;;;4.95;;
75499;SDS011;64076;51.466;7.260;2023-03-01T04:02:30;7.47;;;5.00;;
75499;SDS011;64076;51.466;7.260;2023-03-01T04:04:56;6.63;;;5.10;;
75499;SDS011;64076;51.466;7.260;2023-03-01T04:07:21;7.43;;;5.57;;
75499;SDS011;64076;51.466;7.260;2023-03-01T04:09:47;8.13;;;5.30;;
75499;SDS011;64076;51.466;7.260;2023-03-01T04:12:13;7.15;;;5.40;;
75499;SDS011;64076;51.466;7.260;2023-03-01T04:14:45;5.80;;;5.22;;
75499;SDS011;64076;51.466;7.260;2023-03-01T04:17:11;8.23;;;5.17;;
75499;SDS011;64076;51.466;7.260;2023-03-01T04:19:37;6.13;;;5.45;;
75499;SDS011;64076;51.466;7.260;2023-03-01T04:22:03;6.57;;;5.57;;
75499;SDS011;64076;51.466;7.260;2023-03-01T04:24:34;7.65;;;5.35;;
75499;SDS011;64076;51.466;7.260;2023-03-01T04:27:00;6.43;;;5.00;;
75499;SDS011;64076;51.466;7.260;2023-03-01T04:29:26;7.43;;;5.70;;
75499;SDS011;64076;51.466;7.260;2023-03-01T04:31:52;8.55;;;5.78;;
75499;SDS011;64076;51.466;7.260;2023-03-01T04:34:18;7.20;;;5.60;;
75499;SDS011;64076;51.466;7.260;2023-03-01T04:36:44;5.60;;;5.00;;
75499;SDS011;64076;51.466;7.260;2023-03-01T04:39:09;6.07;;;5.45;;
75499;SDS011;64076;51.466;7.260;2023-03-01T04:41:38;6.60;;;5.30;;
75499;SDS011;64076;51.466;7.260;2023-03-01T04:44:07;6.78;;;5.40;;
75499;SDS011;64076;51.466;7.260;2023-03-01T04:46:34;6.45;;;5.43;;
75499;SDS011;64076;51.466;7.260;2023-03-01T04:49:00;7.70;;;5.38;;
75499;SDS011;64076;51.466;7.260;2023-03-01T04:51:26;7.55;;;5.78;;
75499;SDS011;64076;51.466;7.260;2023-03-01T04:53:52;6.67;;;5.63;;
75499;SDS011;64076;51.466;7.260;2023-03-01T04:56:18;6.20;;;5.50;;
75499;SDS011;64076;51.466;7.260;2023-03-01T04:58:43;5.63;;;4.90;;
75499;SDS011;64076;51.466;7.260;2023-03-01T05:01:10;6.63;;;5.47;;
75499;SDS011;64076;51.466;7.260;2023-03-01T05:03:40;7.20;;;5.55;;
75499;SDS011;64076;51.466;7.260;2023-03-01T05:06:07;6.63;;;5.40;;
75499;SDS011;64076;51.466;7.260;2023-03-01T05:08:33;7.23;;;5.57;;
75499;SDS011;64076;51.466;7.260;2023-03-01T05:11:02;5.75;;;5.00;;
75499;SDS011;64076;51.466;7.260;2023-03-01T05:13:28;6.10;;;5.47;;
75499;SDS011;64076;51.466;7.260;2023-03-01T05:15:54;5.55;;;4.90;;
75499;SDS011;64076;51.466;7.260;2023-03-01T05:18:21;7.90;;;5.22;;
75499;SDS011;64076;51.466;7.260;2023-03-01T05:20:50;6.40;;;5.13;;
75499;SDS011;64076;51.466;7.260;2023-03-01T05:23:17;7.18;;;5.28;;
75499;SDS011;64076;51.466;7.260;2023-03-01T05:25:43;6.45;;;5.38;;
75499;SDS011;64076;51.466;7.260;2023-03-01T05:28:11;6.60;;;5.18;;
75499;SDS011;64076;51.466;7.260;2023-03-01T05:30:37;6.22;;;5.15;;
75499;SDS011;64076;51.466;7.260;2023-03-01T05:33:04;5.83;;;5.03;;
75499;SDS011;64076;51.466;7.260;2023-03-01T05:35:32;6.60;;;4.93;;
75499;SDS011;64076;51.466;7.260;2023-03-01T05:37:58;6.80;;;5.60;;
75499;SDS011;64076;51.466;7.260;2023-03-01T05:40:24;7.10;;;5.65;;
75499;SDS011;64076;51.466;7.260;2023-03-01T05:42:52;6.63;;;5.00;;
75499;SDS011;64076;51.466;7.260;2023-03-01T05:45:19;5.65;;;4.63;;
75499;SDS011;64076;51.466;7.260;2023-03-01T05:47:45;7.72;;;5.78;;
75499;SDS011;64076;51.466;7.260;2023-03-01T05:50:16;6.88;;;5.10;;
75499;SDS011;64076;51.466;7.260;2023-03-01T05:52:46;6.70;;;5.13;;
75499;SDS011;64076;51.466;7.260;2023-03-01T05:55:13;7.13;;;5.50;;
75499;SDS011;64076;51.466;7.260;2023-03-01T05:57:40;7.15;;;5.40;;
75499;SDS011;64076;51.466;7.260;2023-03-01T06:00:06;6.03;;;5.43;;
75499;SDS011;64076;51.466;7.260;2023-03-01T06:02:32;6.63;;;5.23;;
75499;SDS011;64076;51.466;7.260;2023-03-01T06:04:58;6.13;;;5.38;;
75499;SDS011;64076;51.466;7.260;2023-03-01T06:07:23;7.70;;;5.97;;
75499;SDS011;64076;51.466;7.260;2023-03-01T06:09:49;6.95;;;5.45;;
75499;SDS011;64076;51.466;7.260;2023-03-01T06:12:15;6.15;;;5.47;;
75499;SDS011;64076;51.466;7.260;2023-03-01T06:14:42;7.75;;;4.97;;
75499;SDS011;64076;51.466;7.260;2023-03-01T06:17:07;7.33;;;5.33;;
75499;SDS011;64076;51.466;7.260;2023-03-01T06:19:33;7.57;;;5.30;;
75499;SDS011;64076;51.466;7.260;2023-03-01T06:21:59;5.70;;;4.83;;
75499;SDS011;64076;51.466;7.260;2023-03-01T06:24:24;8.90;;;5.23;;
75499;SDS011;64076;51.466;7.260;2023-03-01T06:26:53;4.70;;;4.30;;
75499;SDS011;64076;51.466;7.260;2023-03-01T06:29:18;5.68;;;4.45;;
75499;SDS011;64076;51.466;7.260;2023-03-01T06:31:44;4.88;;;4.28;;
75499;SDS011;64076;51.466;7.260;2023-03-01T06:34:10;5.97;;;4.27;;
75499;SDS011;64076;51.466;7.260;2023-03-01T06:36:38;4.55;;;3.72;;
75499;SDS011;64076;51.466;7.260;2023-03-01T06:39:04;6.13;;;4.22;;
75499;SDS011;64076;51.466;7.260;2023-03-01T06:41:30;4.53;;;3.80;;
75499;SDS011;64076;51.466;7.260;2023-03-01T06:43:56;4.10;;;3.43;;
75499;SDS011;64076;51.466;7.260;2023-03-01T06:46:21;4.00;;;3.58;;
75499;SDS011;64076;51.466;7.260;2023-03-01T06:48:47;4.33;;;3.93;;
75499;SDS011;64076;51.466;7.260;2023-03-01T06:51:12;5.20;;;3.80;;
75499;SDS011;64076;51.466;7.260;2023-03-01T06:53:38;5.55;;;3.85;;
75499;SDS011;64076;51.466;7.260;2023-03-01T06:56:03;5.17;;;3.53;;
75499;SDS011;64076;51.466;7.260;2023-03-01T06:58:29;4.28;;;3.60;;
75499;SDS011;64076;51.466;7.260;2023-03-01T07:00:55;3.80;;;3.37;;
75499;SDS011;64076;51.466;7.260;2023-03-01T07:03:20;4.03;;;3.63;;
75499;SDS011;64076;51.466;7.260;2023-03-01T07:05:48;3.95;;;3.55;;
75499;SDS011;64076;51.466;7.260;2023-03-01T07:08:14;4.77;;;3.47;;
75499;SDS011;64076;51.466;7.260;2023-03-01T07:10:40;4.90;;;3.50;;
75499;SDS011;64076;51.466;7.260;2023-03-01T07:13:06;4.90;;;3.33;;
75499;SDS011;64076;51.466;7.260;2023-03-01T07:15:32;3.67;;;3.00;;
75499;SDS011;64076;51.466;7.260;2023-03-01T07:17:58;4.00;;;3.22;;
75499;SDS011;64076;51.466;7.260;2023-03-01T07:20:23;3.77;;;3.40;;
75499;SDS011;64076;51.466;7.260;2023-03-01T07:22:50;3.88;;;3.47;;
75499;SDS011;64076;51.466;7.260;2023-03-01T07:25:17;4.25;;;3.40;;
75499;SDS011;64076;51.466;7.260;2023-03-01T07:27:42;4.33;;;3.60;;
75499;SDS011;64076;51.466;7.260;2023-03-01T07:30:08;4.70;;;3.28;;
75499;SDS011;64076;51.466;7.260;2023-03-01T07:32:34;4.18;;;3.30;;
75499;SDS011;64076;51.466;7.260;2023-03-01T07:35:00;3.83;;;3.03;;
75499;SDS011;64076;51.466;7.260;2023-03-01T07:37:26;3.45;;;3.15;;
75499;SDS011;64076;51.466;7.260;2023-03-01T07:39:52;5.05;;;3.50;;
75499;SDS011;64076;51.466;7.260;2023-03-01T07:42:18;4.15;;;3.35;;
75499;SDS011;64076;51.466;7.260;2023-03-01T07:44:44;4.67;;;3.20;;
75499;SDS011;64076;51.466;7.260;2023-03-01T07:47:10;4.25;;;2.90;;
75499;SDS011;64076;51.466;7.260;2023-03-01T07:49:36;4.13;;;3.40;;
75499;SDS011;64076;51.466;7.260;2023-03-01T07:52:02;4.28;;;3.00;;
75499;SDS011;64076;51.466;7.260;2023-03-01T07:54:28;7.13;;;3.67;;
75499;SDS011;64076;51.466;7.260;2023-03-01T07:56:54;5.32;;;3.40;;
75499;SDS011;64076;51.466;7.260;2023-03-01T07:59:20;5.20;;;3.35;;
75499;SDS011;64076;51.466;7.260;2023-03-01T08:01:46;5.68;;;2.97;;
75499;SDS011;64076;51.466;7.260;2023-03-01T08:04:12;5.30;;;3.70;;
75499;SDS011;64076;51.466;7.260;2023-03-01T08:06:38;5.47;;;3.33;;
75499;SDS011;64076;51.466;7.260;2023-03-01T08:09:04;4.15;;;3.30;;
75499;SDS011;64076;51.466;7.260;2023-03-01T08:11:30;4.72;;;3.33;;
75499;SDS011;64076;51.466;7.260;2023-03-01T08:13:56;6.33;;;3.23;;
75499;SDS011;64076;51.466;7.260;2023-03-01T08:16:22;3.63;;;3.10;;
75499;SDS011;64076;51.466;7.260;2023-03-01T08:18:48;6.20;;;3.70;;
75499;SDS011;64076;51.466;7.260;2023-03-01T08:21:15;5.13;;;2.75;;
75499;SDS011;64076;51.466;7.260;2023-03-01T08:23:42;3.35;;;2.90;;
75499;SDS011;64076;51.466;7.260;2023-03-01T08:26:09;5.28;;;3.30;;
75499;SDS011;64076;51.466;7.260;2023-03-01T08:28:35;4.23;;;3.20;;
75499;SDS011;64076;51.466;7.260;2023-03-01T08:31:01;3.85;;;3.15;;
75499;SDS011;64076;51.466;7.260;2023-03-01T08:33:27;4.65;;;2.78;;
75499;SDS011;64076;51.466;7.260;2023-03-01T08:36:01;4.40;;;2.70;;
75499;SDS011;64076;51.466;7.260;2023-03-01T08:38:27;3.80;;;2.70;;
75499;SDS011;64076;51.466;7.260;2023-03-01T08:40:53;3.88;;;2.83;;
75499;SDS011;64076;51.466;7.260;2023-03-01T08:43:19;3.50;;;2.90;;
75499;SDS011;64076;51.466;7.260;2023-03-01T08:45:45;3.72;;;3.08;;
75499;SDS011;64076;51.466;7.260;2023-03-01T08:48:13;3.87;;;2.87;;
75499;SDS011;64076;51.466;7.260;2023-03-01T08:50:39;3.25;;;2.75;;
75499;SDS011;64076;51.466;7.260;2023-03-01T08:53:06;3.13;;;2.70;;
75499;SDS011;64076;51.466;7.260;2023-03-01T08:55:32;3.25;;;2.55;;
75499;SDS011;64076;51.466;7.260;2023-03-01T08:57:58;4.60;;;3.10;;
75499;SDS011;64076;51.466;7.260;2023-03-01T09:00:24;4.95;;;2.83;;
75499;SDS011;64076;51.466;7.260;2023-03-01T09:02:50;3.33;;;2.83;;
75499;SDS011;64076;51.466;7.260;2023-03-01T09:05:16;3.50;;;2.58;;
75499;SDS011;64076;51.466;7.260;2023-03-01T09:07:42;3.37;;;2.70;;
75499;SDS011;64076;51.466;7.260;2023-03-01T09:10:08;3.17;;;2.28;;
75499;SDS011;64076;51.466;7.260;2023-03-01T09:12:34;3.45;;;2.60;;
75499;SDS011;64076;51.466;7.260;2023-03-01T09:15:00;3.70;;;3.00;;
75499;SDS011;64076;51.466;7.260;2023-03-01T09:17:26;3.30;;;2.70;;
75499;SDS011;64076;51.466;7.260;2023-03-01T09:19:52;3.20;;;2.37;;
75499;SDS011;64076;51.466;7.260;2023-03-01T09:22:18;3.10;;;2.75;;
75499;SDS011;64076;51.466;7.260;2023-03-01T09:24:44;3.40;;;2.60;;
75499;SDS011;64076;51.466;7.260;2023-03-01T09:27:10;3.27;;;2.23;;
75499;SDS011;64076;51.466;7.260;2023-03-01T09:29:37;3.30;;;2.60;;
75499;SDS011;64076;51.466;7.260;2023-03-01T09:32:04;3.55;;;2.50;;
75499;SDS011;64076;51.466;7.260;2023-03-01T09:34:31;3.45;;;2.55;;
75499;SDS011;64076;51.466;7.260;2023-03-01T09:37:17;2.88;;;2.38;;
75499;SDS011;64076;51.466;7.260;2023-03-01T09:39:43;3.20;;;2.50;;
75499;SDS011;64076;51.466;7.260;2023-03-01T09:42:10;3.17;;;2.33;;
75499;SDS011;64076;51.466;7.260;2023-03-01T09:44:43;2.80;;;2.30;;
75499;SDS011;64076;51.466;7.260;2023-03-01T09:47:12;3.10;;;2.17;;
75499;SDS011;64076;51.466;7.260;2023-03-01T09:49:41;3.63;;;2.38;;
75499;SDS011;64076;51.466;7.260;2023-03-01T09:54:44;3.27;;;2.37;;
75499;SDS011;64076;51.466;7.260;2023-03-01T09:57:16;2.78;;;2.25;;
75499;SDS011;64076;51.466;7.260;2023-03-01T09:59:47;3.08;;;2.30;;
75499;SDS011;64076;51.466;7.260;2023-03-01T10:04:51;2.83;;;2.45;;
75499;SDS011;64076;51.466;7.260;2023-03-01T10:09:48;3.10;;;2.45;;
75499;SDS011;64076;51.466;7.260;2023-03-01T10:12:18;3.08;;;2.22;;
75499;SDS011;64076;51.466;7.260;2023-03-01T10:14:54;2.80;;;2.15;;
75499;SDS011;64076;51.466;7.260;2023-03-01T10:19:47;2.93;;;2.10;;
75499;SDS011;64076;51.466;7.260;2023-03-01T10:22:15;3.00;;;2.22;;
75499;SDS011;64076;51.466;7.260;2023-03-01T10:24:41;3.40;;;2.15;;
75499;SDS011;64076;51.466;7.260;2023-03-01T10:27:09;2.75;;;2.30;;
75499;SDS011;64076;51.466;7.260;2023-03-01T10:29:47;2.80;;;2.10;;
75499;SDS011;64076;51.466;7.260;2023-03-01T10:32:14;2.53;;;1.90;;
75499;SDS011;64076;51.466;7.260;2023-03-01T10:34:40;2.78;;;2.22;;
75499;SDS011;64076;51.466;7.260;2023-03-01T10:37:24;2.72;;;2.00;;
75499;SDS011;64076;51.466;7.260;2023-03-01T10:40:00;2.47;;;1.90;;
75499;SDS011;64076;51.466;7.260;2023-03-01T10:42:46;2.97;;;2.10;;
75499;SDS011;64076;51.466;7.260;2023-03-01T10:50:42;2.90;;;2.00;;
75499;SDS011;64076;51.466;7.260;2023-03-01T10:53:22;2.50;;;1.83;;
75499;SDS011;64076;51.466;7.260;2023-03-01T10:55:57;2.80;;;1.85;;
75499;SDS011;64076;51.466;7.260;2023-03-01T10:58:24;2.80;;;1.90;;
75499;SDS011;64076;51.466;7.260;2023-03-01T11:00:51;2.50;;;1.88;;
75499;SDS011;64076;51.466;7.260;2023-03-01T11:03:28;3.80;;;2.10;;
75499;SDS011;64076;51.466;7.260;2023-03-01T11:05:56;2.47;;;1.80;;
75499;SDS011;64076;51.466;7.260;2023-03-01T11:08:38;2.55;;;2.00;;
75499;SDS011;64076;51.466;7.260;2023-03-01T11:11:16;2.63;;;2.03;;
75499;SDS011;64076;51.466;7.260;2023-03-01T11:16:34;3.30;;;2.10;;
75499;SDS011;64076;51.466;7.260;2023-03-01T11:19:13;2.60;;;1.80;;
75499;SDS011;64076;51.466;7.260;2023-03-01T11:21:52;2.53;;;1.80;;
75499;SDS011;64076;51.466;7.260;2023-03-01T11:24:19;2.85;;;1.90;;
75499;SDS011;64076;51.466;7.260;2023-03-01T11:26:47;2.72;;;1.88;;
75499;SDS011;64076;51.466;7.260;2023-03-01T11:32:01;2.63;;;1.90;;
75499;SDS011;64076;51.466;7.260;2023-03-01T11:34:50;3.13;;;2.00;;
75499;SDS011;64076;51.466;7.260;2023-03-01T11:37:21;2.40;;;1.77;;
75499;SDS011;64076;51.466;7.260;2023-03-01T11:39:56;2.92;;;1.80;;
75499;SDS011;64076;51.466;7.260;2023-03-01T11:42:28;2.95;;;1.80;;
75499;SDS011;64076;51.466;7.260;2023-03-01T11:44:56;2.93;;;1.80;;
75499;SDS011;64076;51.466;7.260;2023-03-01T12:11:08;2.85;;;2.00;;
75499;SDS011;64076;51.466;7.260;2023-03-01T12:13:52;2.60;;;2.00;;
75499;SDS011;64076;51.466;7.260;2023-03-01T12:19:17;2.47;;;1.83;;
75499;SDS011;64076;51.466;7.260;2023-03-01T12:24:14;2.55;;;1.90;;
75499;SDS011;64076;51.466;7.260;2023-03-01T12:49:37;3.47;;;2.05;;
75499;SDS011;64076;51.466;7.260;2023-03-01T12:52:24;3.33;;;1.90;;
75499;SDS011;64076;51.466;7.260;2023-03-01T12:54:54;3.07;;;2.00;;
75499;SDS011;64076;51.466;7.260;2023-03-01T12:57:25;2.50;;;2.00;;
75499;SDS011;64076;51.466;7.260;2023-03-01T13:00:00;4.13;;;2.40;;
75499;SDS011;64076;51.466;7.260;2023-03-01T13:08:05;2.20;;;1.80;;
75499;SDS011;64076;51.466;7.260;2023-03-01T13:10:36;2.70;;;1.98;;
75499;SDS011;64076;51.466;7.260;2023-03-01T13:15:34;2.88;;;2.15;;
75499;SDS011;64076;51.466;7.260;2023-03-01T13:23:07;2.70;;;1.90;;
75499;SDS011;64076;51.466;7.260;2023-03-01T13:25:34;2.60;;;1.98;;
75499;SDS011;64076;51.466;7.260;2023-03-01T13:30:45;2.85;;;1.85;;
75499;SDS011;64076;51.466;7.260;2023-03-01T13:33:33;3.33;;;1.93;;
75499;SDS011;64076;51.466;7.260;2023-03-01T13:36:01;2.65;;;1.85;;
75499;SDS011;64076;51.466;7.260;2023-03-01T13:41:02;2.60;;;1.90;;
75499;SDS011;64076;51.466;7.260;2023-03-01T13:43:31;2.50;;;1.90;;
75499;SDS011;64076;51.466;7.260;2023-03-01T13:45:57;2.67;;;1.80;;
75499;SDS011;64076;51.466;7.260;2023-03-01T13:48:25;2.65;;;1.90;;
75499;SDS011;64076;51.466;7.260;2023-03-01T13:50:54;3.10;;;1.90;;
75499;SDS011;64076;51.466;7.260;2023-03-01T13:53:22;3.25;;;2.00;;
75499;SDS011;64076;51.466;7.260;2023-03-01T13:56:09;2.70;;;1.80;;
75499;SDS011;64076;51.466;7.260;2023-03-01T13:58:58;2.80;;;1.77;;
75499;SDS011;64076;51.466;7.260;2023-03-01T14:03:51;2.92;;;2.10;;
75499;SDS011;64076;51.466;7.260;2023-03-01T14:06:19;2.55;;;1.83;;
75499;SDS011;64076;51.466;7.260;2023-03-01T14:08:46;2.40;;;1.65;;
75499;SDS011;64076;51.466;7.260;2023-03-01T14:13:51;2.47;;;2.00;;
75499;SDS011;64076;51.466;7.260;2023-03-01T14:16:42;2.55;;;1.70;;
75499;SDS011;64076;51.466;7.260;2023-03-01T14:21:41;2.80;;;2.00;;
75499;SDS011;64076;51.466;7.260;2023-03-01T14:24:15;2.97;;;2.15;;
75499;SDS011;64076;51.466;7.260;2023-03-01T14:26:42;2.58;;;1.80;;
75499;SDS011;64076;51.466;7.260;2023-03-01T14:29:23;2.53;;;1.70;;
75499;SDS011;64076;51.466;7.260;2023-03-01T14:31:49;2.70;;;2.03;;
75499;SDS011;64076;51.466;7.260;2023-03-01T14:34:21;2.70;;;2.00;;
75499;SDS011;64076;51.466;7.260;2023-03-01T14:36:48;3.35;;;1.73;;
75499;SDS011;64076;51.466;7.260;2023-03-01T14:39:23;2.83;;;2.00;;
75499;SDS011;64076;51.466;7.260;2023-03-01T14:41:50;2.90;;;1.80;;
75499;SDS011;64076;51.466;7.260;2023-03-01T14:44:19;2.38;;;1.60;;
75499;SDS011;64076;51.466;7.260;2023-03-01T14:46:51;2.60;;;2.00;;
75499;SDS011;64076;51.466;7.260;2023-03-01T14:49:21;2.92;;;1.83;;
75499;SDS011;64076;51.466;7.260;2023-03-01T14:51:57;2.80;;;1.90;;
75499;SDS011;64076;51.466;7.260;2023-03-01T14:54:25;2.33;;;1.50;;
75499;SDS011;64076;51.466;7.260;2023-03-01T14:56:52;2.90;;;1.75;;
75499;SDS011;64076;51.466;7.260;2023-03-01T14:59:22;3.43;;;1.80;;
75499;SDS011;64076;51.466;7.260;2023-03-01T15:01:49;3.00;;;1.85;;
75499;SDS011;64076;51.466;7.260;2023-03-01T15:04:15;2.30;;;1.67;;
75499;SDS011;64076;51.466;7.260;2023-03-01T15:06:41;2.50;;;1.80;;
75499;SDS011;64076;51.466;7.260;2023-03-01T15:09:11;2.83;;;1.88;;
75499;SDS011;64076;51.466;7.260;2023-03-01T15:11:37;2.53;;;1.83;;
75499;SDS011;64076;51.466;7.260;2023-03-01T15:14:25;3.47;;;2.13;;
75499;SDS011;64076;51.466;7.260;2023-03-01T15:16:51;2.22;;;1.50;;
75499;SDS011;64076;51.466;7.260;2023-03-01T15:19:17;2.60;;;1.90;;
75499;SDS011;64076;51.466;7.260;2023-03-01T15:21:44;2.88;;;1.80;;
75499;SDS011;64076;51.466;7.260;2023-03-01T15:26:44;2.50;;;1.80;;
75499;SDS011;64076;51.466;7.260;2023-03-01T15:29:15;2.45;;;1.70;;
75499;SDS011;64076;51.466;7.260;2023-03-01T15:31:42;2.42;;;1.70;;
75499;SDS011;64076;51.466;7.260;2023-03-01T15:34:21;2.53;;;1.83;;
75499;SDS011;64076;51.466;7.260;2023-03-01T15:36:47;3.20;;;1.90;;
75499;SDS011;64076;51.466;7.260;2023-03-01T15:39:30;2.47;;;1.63;;
75499;SDS011;64076;51.466;7.260;2023-03-01T15:41:58;2.72;;;1.80;;
75499;SDS011;64076;51.466;7.260;2023-03-01T15:44:28;2.50;;;1.70;;
75499;SDS011;64076;51.466;7.260;2023-03-01T15:46:55;2.30;;;1.70;;
75499;SDS011;64076;51.466;7.260;2023-03-01T15:51:56;2.35;;;1.67;;
75499;SDS011;64076;51.466;7.260;2023-03-01T15:54:23;2.38;;;1.63;;
75499;SDS011;64076;51.466;7.260;2023-03-01T15:56:50;2.97;;;1.70;;
75499;SDS011;64076;51.466;7.260;2023-03-01T15:59:16;2.50;;;1.70;;
75499;SDS011;64076;51.466;7.260;2023-03-01T16:01:43;2.40;;;1.60;;
75499;SDS011;64076;51.466;7.260;2023-03-01T16:04:13;2.30;;;1.55;;
75499;SDS011;64076;51.466;7.260;2023-03-01T16:06:45;2.60;;;1.85;;
75499;SDS011;64076;51.466;7.260;2023-03-01T16:09:11;2.72;;;1.67;;
75499;SDS011;64076;51.466;7.260;2023-03-01T16:11:37;2.55;;;1.70;;
75499;SDS011;64076;51.466;7.260;2023-03-01T16:14:05;2.70;;;1.73;;
75499;SDS011;64076;51.466;7.260;2023-03-01T16:16:31;2.70;;;1.80;;
75499;SDS011;64076;51.466;7.260;2023-03-01T16:18:57;2.17;;;1.55;;
75499;SDS011;64076;51.466;7.260;2023-03-01T16:21:23;2.38;;;1.80;;
75499;SDS011;64076;51.466;7.260;2023-03-01T16:23:50;2.17;;;1.60;;
75499;SDS011;64076;51.466;7.260;2023-03-01T16:26:17;2.65;;;1.70;;
75499;SDS011;64076;51.466;7.260;2023-03-01T16:28:43;1.90;;;1.45;;
75499;SDS011;64076;51.466;7.260;2023-03-01T16:31:10;2.55;;;1.70;;
75499;SDS011;64076;51.466;7.260;2023-03-01T16:33:36;2.33;;;1.60;;
75499;SDS011;64076;51.466;7.260;2023-03-01T16:36:09;2.17;;;1.50;;
75499;SDS011;64076;51.466;7.260;2023-03-01T16:38:36;2.40;;;1.58;;
75499;SDS011;64076;51.466;7.260;2023-03-01T16:41:02;3.65;;;1.92;;
75499;SDS011;64076;51.466;7.260;2023-03-01T16:43:28;2.22;;;1.67;;
75499;SDS011;64076;51.466;7.260;2023-03-01T16:45:54;2.08;;;1.63;;
75499;SDS011;64076;51.466;7.260;2023-03-01T16:48:21;2.50;;;1.60;;
75499;SDS011;64076;51.466;7.260;2023-03-01T16:50:55;2.33;;;1.70;;